createdAt,value
2018-06-05T00:00:34.197Z,15.50
2018-06-05T00:03:02.774Z,15.40
2018-06-05T00:05:31.341Z,15.30
2018-06-05T00:07:59.823Z,15.30
2018-06-05T00:10:28.306Z,15.30
2018-06-05T00:12:56.884Z,15.30
2018-06-05T00:15:25.524Z,15.20
2018-06-05T00:17:53.989Z,15.10
2018-06-05T00:20:22.532Z,15.10
2018-06-05T00:22:51.052Z,15.00
2018-06-05T00:25:19.458Z,15.00
2018-06-05T00:27:47.906Z,15.00
2018-06-05T00:30:16.308Z,14.90
2018-06-05T00:32:44.791Z,14.90
2018-06-05T00:35:13.348Z,14.90
2018-06-05T00:37:41.861Z,15.00
2018-06-05T00:40:10.362Z,14.90
2018-06-05T00:42:38.810Z,15.00
2018-06-05T00:45:07.278Z,15.00
2018-06-05T00:47:35.824Z,15.00
2018-06-05T00:50:04.357Z,15.00
2018-06-05T00:52:32.905Z,15.00
2018-06-05T00:55:01.524Z,15.00
2018-06-05T00:57:29.978Z,15.10
2018-06-05T00:59:58.451Z,15.10
2018-06-05T01:02:27.931Z,15.20
2018-06-05T01:04:56.637Z,15.20
2018-06-05T01:07:25.536Z,15.30
2018-06-05T01:09:53.991Z,15.40
2018-06-05T01:12:22.421Z,15.40
2018-06-05T01:14:50.921Z,15.40
2018-06-05T01:17:19.569Z,15.50
2018-06-05T01:19:48.056Z,15.50
2018-06-05T01:22:16.920Z,15.50
2018-06-05T01:24:45.365Z,15.60
2018-06-05T01:27:14.159Z,15.60
2018-06-05T01:29:42.736Z,15.60
2018-06-05T01:32:11.222Z,15.50
2018-06-05T01:34:40.068Z,15.60
2018-06-05T01:37:08.584Z,15.50
2018-06-05T01:39:37.048Z,15.50
2018-06-05T01:42:05.547Z,15.50
2018-06-05T01:44:34.172Z,15.40
2018-06-05T01:47:03.384Z,15.50
2018-06-05T01:49:37.158Z,15.40
2018-06-05T01:52:06.227Z,15.40
2018-06-05T01:54:34.924Z,15.40
2018-06-05T01:57:03.696Z,15.50
2018-06-05T01:59:32.966Z,15.50
2018-06-05T02:04:29.775Z,15.50
2018-06-05T02:06:58.313Z,15.60
2018-06-05T02:09:26.776Z,15.50
2018-06-05T02:11:55.222Z,15.60
2018-06-05T02:14:23.781Z,15.60
2018-06-05T02:16:52.184Z,15.60
2018-06-05T02:19:20.579Z,15.70
2018-06-05T02:21:49.020Z,15.70
2018-06-05T02:24:17.465Z,15.70
2018-06-05T02:26:45.894Z,15.60
2018-06-05T02:29:14.277Z,15.50
2018-06-05T02:31:42.716Z,15.50
2018-06-05T02:34:11.432Z,15.50
2018-06-05T02:36:39.877Z,15.50
2018-06-05T02:39:08.464Z,15.50
2018-06-05T02:41:36.944Z,15.40
2018-06-05T02:46:33.568Z,15.50
2018-06-05T02:49:02.020Z,15.50
2018-06-05T02:51:30.443Z,15.50
2018-06-05T02:53:58.900Z,15.50
2018-06-05T02:56:27.397Z,15.50
2018-06-05T02:58:55.856Z,15.50
2018-06-05T03:01:24.352Z,15.50
2018-06-05T03:03:52.763Z,15.50
2018-06-05T03:06:21.397Z,15.50
2018-06-05T03:08:49.880Z,15.50
2018-06-05T03:11:18.301Z,15.40
2018-06-05T03:13:46.743Z,15.40
2018-06-05T03:16:15.191Z,15.40
2018-06-05T03:18:43.639Z,15.40
2018-06-05T03:21:12.075Z,15.40
2018-06-05T03:23:40.542Z,15.40
2018-06-05T03:26:08.972Z,15.40
2018-06-05T03:28:37.402Z,15.30
2018-06-05T03:31:05.915Z,15.40
2018-06-05T03:33:34.418Z,15.30
2018-06-05T03:36:02.891Z,15.30
2018-06-05T03:40:59.446Z,15.30
2018-06-05T03:43:27.872Z,15.20
2018-06-05T03:45:56.440Z,15.20
2018-06-05T03:48:24.909Z,15.20
2018-06-05T03:50:53.329Z,15.20
2018-06-05T03:55:50.119Z,15.30
2018-06-05T03:58:18.600Z,15.30
2018-06-05T04:00:47.057Z,15.30
2018-06-05T04:03:15.500Z,15.30
2018-06-05T04:05:43.936Z,15.30
2018-06-05T04:08:12.456Z,15.30
2018-06-05T04:10:41.004Z,15.30
2018-06-05T04:13:09.518Z,15.30
2018-06-05T04:15:38.045Z,15.40
2018-06-05T04:18:06.452Z,15.40
2018-06-05T04:20:34.912Z,15.40
2018-06-05T04:23:03.642Z,15.40
2018-06-05T04:25:32.117Z,15.40
2018-06-05T04:28:00.553Z,15.40
2018-06-05T04:30:28.998Z,15.40
2018-06-05T04:32:57.514Z,15.40
2018-06-05T04:35:26.006Z,15.50
2018-06-05T04:37:54.428Z,15.40
2018-06-05T04:40:22.841Z,15.50
2018-06-05T04:42:51.345Z,15.50
2018-06-05T04:45:19.772Z,15.60
2018-06-05T04:47:48.240Z,15.60
2018-06-05T04:50:17.088Z,15.60
2018-06-05T04:52:45.516Z,15.50
2018-06-05T04:55:13.947Z,15.50
2018-06-05T04:57:42.413Z,15.50
2018-06-05T05:00:13.200Z,15.60
2018-06-05T05:02:41.747Z,15.60
2018-06-05T05:05:10.314Z,15.70
2018-06-05T05:07:38.798Z,15.70
2018-06-05T05:10:07.290Z,15.70
2018-06-05T05:12:35.738Z,15.70
2018-06-05T05:15:04.165Z,15.80
2018-06-05T05:17:32.892Z,15.80
2018-06-05T05:20:01.461Z,15.80
2018-06-05T05:22:30.173Z,15.80
2018-06-05T05:24:58.715Z,15.80
2018-06-05T05:27:27.178Z,15.80
2018-06-05T05:29:55.865Z,15.80
2018-06-05T05:32:24.350Z,15.80
2018-06-05T05:34:52.808Z,15.90
2018-06-05T05:37:21.272Z,15.90
2018-06-05T05:39:49.740Z,15.90
2018-06-05T05:42:18.525Z,15.90
2018-06-05T05:44:46.972Z,15.90
2018-06-05T05:47:15.605Z,15.90
2018-06-05T05:49:44.197Z,15.90
2018-06-05T05:52:13.113Z,16.00
2018-06-05T05:54:41.570Z,16.00
2018-06-05T05:57:10.026Z,16.10
2018-06-05T05:59:38.730Z,16.10
2018-06-05T06:02:07.340Z,16.10
2018-06-05T06:04:35.800Z,16.10
2018-06-05T06:07:04.361Z,16.20
2018-06-05T06:09:32.945Z,16.20
2018-06-05T06:12:01.462Z,16.30
2018-06-05T06:14:29.956Z,16.40
2018-06-05T06:16:58.546Z,16.50
2018-06-05T06:19:26.985Z,16.60
2018-06-05T06:21:55.604Z,16.60
2018-06-05T06:24:24.280Z,16.60
2018-06-05T06:26:52.952Z,16.70
2018-06-05T06:29:21.397Z,16.70
2018-06-05T06:31:49.960Z,16.70
2018-06-05T06:34:18.636Z,16.70
2018-06-05T06:36:47.137Z,16.80
2018-06-05T06:39:15.590Z,16.70
2018-06-05T06:41:44.065Z,16.70
2018-06-05T06:44:12.602Z,16.70
2018-06-05T06:49:09.262Z,16.80
2018-06-05T06:54:06.649Z,17.00
2018-06-05T06:56:35.128Z,16.90
2018-06-05T06:59:03.725Z,17.00
2018-06-05T07:01:32.262Z,17.00
2018-06-05T07:04:00.726Z,17.00
2018-06-05T07:06:29.340Z,17.00
2018-06-05T07:08:58.257Z,17.10
2018-06-05T07:11:27.000Z,17.20
2018-06-05T07:13:58.462Z,17.40
2018-06-05T07:16:27.734Z,17.30
2018-06-05T07:18:56.219Z,17.30
2018-06-05T07:21:25.265Z,17.30
2018-06-05T07:23:53.719Z,17.50
2018-06-05T07:26:22.203Z,17.70
2018-06-05T07:28:50.679Z,17.80
2018-06-05T07:31:19.431Z,17.90
2018-06-05T07:33:47.852Z,18.00
2018-06-05T07:36:16.346Z,18.00
2018-06-05T07:38:44.829Z,18.10
2018-06-05T07:41:13.318Z,17.90
2018-06-05T07:43:41.828Z,18.10
2018-06-05T07:46:10.334Z,18.40
2018-06-05T07:48:38.913Z,18.40
2018-06-05T07:51:07.393Z,18.70
2018-06-05T07:53:35.852Z,18.80
2018-06-05T07:56:04.380Z,18.70
2018-06-05T07:58:32.801Z,18.60
2018-06-05T08:01:01.387Z,18.40
2018-06-05T08:03:30.758Z,18.40
2018-06-05T08:05:59.260Z,18.30
2018-06-05T08:08:28.476Z,18.10
2018-06-05T08:10:57.217Z,18.10
2018-06-05T08:13:25.843Z,18.30
2018-06-05T08:15:54.412Z,18.40
2018-06-05T08:18:22.928Z,18.50
2018-06-05T08:20:51.396Z,18.60
2018-06-05T08:23:20.007Z,18.90
2018-06-05T08:25:48.685Z,19.00
2018-06-05T08:28:17.413Z,19.00
2018-06-05T08:30:46.025Z,19.30
2018-06-05T08:33:15.665Z,19.20
2018-06-05T08:35:44.278Z,19.10
2018-06-05T08:38:13.027Z,19.20
2018-06-05T08:40:41.832Z,19.30
2018-06-05T08:43:10.862Z,19.50
2018-06-05T08:45:39.456Z,19.70
2018-06-05T08:48:07.991Z,19.90
2018-06-05T08:50:36.463Z,19.80
2018-06-05T08:53:04.945Z,19.70
2018-06-05T08:55:34.209Z,19.70
2018-06-05T09:00:30.815Z,20.00
2018-06-05T09:05:27.409Z,20.00
2018-06-05T09:07:55.872Z,19.60
2018-06-05T09:10:25.105Z,19.70
2018-06-05T09:12:53.563Z,19.70
2018-06-05T09:17:50.593Z,19.50
2018-06-05T09:20:19.154Z,19.60
2018-06-05T09:22:47.778Z,19.70
2018-06-05T09:25:16.217Z,19.90
2018-06-05T09:27:44.748Z,20.00
2018-06-05T09:30:13.184Z,20.30
2018-06-05T09:32:41.656Z,20.20
2018-06-05T09:35:10.404Z,20.10
2018-06-05T09:37:39.038Z,19.80
2018-06-05T09:40:07.568Z,19.40
2018-06-05T09:42:36.077Z,19.40
2018-06-05T09:45:04.585Z,19.40
2018-06-05T09:47:33.041Z,19.80
2018-06-05T09:50:01.467Z,19.90
2018-06-05T09:52:29.943Z,19.80
2018-06-05T09:54:58.430Z,20.10
2018-06-05T09:57:26.900Z,19.90
2018-06-05T09:59:55.417Z,20.10
2018-06-05T10:02:24.000Z,20.30
2018-06-05T10:04:52.732Z,20.20
2018-06-05T10:07:21.740Z,20.00
2018-06-05T10:09:50.348Z,19.50
2018-06-05T10:12:19.114Z,19.70
2018-06-05T10:14:48.282Z,19.90
2018-06-05T10:17:16.706Z,20.00
2018-06-05T10:19:45.239Z,19.80
2018-06-05T10:22:13.697Z,19.50
2018-06-05T10:27:16.615Z,19.40
2018-06-05T10:29:48.991Z,19.30
2018-06-05T10:32:17.516Z,19.50
2018-06-05T10:34:46.132Z,19.70
2018-06-05T10:37:16.380Z,19.80
2018-06-05T10:39:46.358Z,20.10
2018-06-05T10:42:14.823Z,20.20
2018-06-05T10:44:43.288Z,20.50
2018-06-05T10:47:11.905Z,20.40
2018-06-05T10:49:40.437Z,19.80
2018-06-05T10:52:08.936Z,19.60
2018-06-05T10:54:37.511Z,19.50
2018-06-05T10:57:05.963Z,19.70
2018-06-05T10:59:34.596Z,19.90
2018-06-05T11:02:03.131Z,20.40
2018-06-05T11:04:32.318Z,20.50
2018-06-05T11:07:00.760Z,20.40
2018-06-05T11:09:30.281Z,20.50
2018-06-05T11:11:58.813Z,20.90
2018-06-05T11:14:27.603Z,20.80
2018-06-05T11:16:56.080Z,21.10
2018-06-05T11:19:24.600Z,21.50
2018-06-05T11:21:53.073Z,21.40
2018-06-05T11:24:21.583Z,21.20
2018-06-05T11:26:50.064Z,21.30
2018-06-05T11:29:18.548Z,20.90
2018-06-05T11:31:46.992Z,20.80
2018-06-05T11:34:15.460Z,20.90
2018-06-05T11:36:43.930Z,20.70
2018-06-05T11:39:12.500Z,20.70
2018-06-05T11:41:41.381Z,21.10
2018-06-05T11:44:10.028Z,21.00
2018-06-05T11:46:38.617Z,21.00
2018-06-05T11:49:07.061Z,21.20
2018-06-05T11:54:03.753Z,21.20
2018-06-05T11:56:32.188Z,21.30
2018-06-05T11:59:00.667Z,21.60
2018-06-05T12:01:29.096Z,21.50
2018-06-05T12:03:57.519Z,21.80
2018-06-05T12:06:26.945Z,22.30
2018-06-05T12:08:55.812Z,22.30
2018-06-05T12:11:24.240Z,22.00
2018-06-05T12:13:52.722Z,21.40
2018-06-05T12:16:21.225Z,21.00
2018-06-05T12:18:49.724Z,21.50
2018-06-05T12:21:18.232Z,21.50
2018-06-05T12:23:46.694Z,21.90
2018-06-05T12:26:15.353Z,22.40
2018-06-05T12:28:43.868Z,21.90
2018-06-05T12:31:12.323Z,21.20
2018-06-05T12:33:40.783Z,21.20
2018-06-05T12:36:09.503Z,21.90
2018-06-05T12:38:38.023Z,22.00
2018-06-05T12:41:06.598Z,21.60
2018-06-05T12:43:35.104Z,21.80
2018-06-05T12:46:03.528Z,22.30
2018-06-05T12:48:31.974Z,22.10
2018-06-05T12:51:00.412Z,22.30
2018-06-05T12:53:28.892Z,22.30
2018-06-05T12:55:57.393Z,22.30
2018-06-05T12:58:25.856Z,22.40
2018-06-05T13:00:54.344Z,22.20
2018-06-05T13:03:23.008Z,22.20
2018-06-05T13:05:51.479Z,22.00
2018-06-05T13:08:20.054Z,21.60
2018-06-05T13:10:48.559Z,21.80
2018-06-05T13:13:17.037Z,22.00
2018-06-05T13:15:45.448Z,22.50
2018-06-05T13:18:13.873Z,22.60
2018-06-05T13:20:42.852Z,22.30
2018-06-05T13:23:11.382Z,22.60
2018-06-05T13:25:39.837Z,22.90
2018-06-05T13:28:08.304Z,22.90
2018-06-05T13:33:05.018Z,21.80
2018-06-05T13:35:34.460Z,22.40
2018-06-05T13:38:02.937Z,22.80
2018-06-05T13:40:31.418Z,22.90
2018-06-05T13:42:59.925Z,23.00
2018-06-05T13:45:28.344Z,22.40
2018-06-05T13:47:56.805Z,22.30
2018-06-05T13:50:28.320Z,22.60
2018-06-05T13:52:56.961Z,22.90
2018-06-05T13:55:25.450Z,22.90
2018-06-05T13:57:53.934Z,23.60
2018-06-05T14:00:22.467Z,23.30
2018-06-05T14:02:51.962Z,23.40
2018-06-05T14:05:20.708Z,22.80
2018-06-05T14:07:49.403Z,22.90
2018-06-05T14:10:17.841Z,22.50
2018-06-05T14:12:46.336Z,22.90
2018-06-05T14:15:15.019Z,22.80
2018-06-05T14:17:43.758Z,22.90
2018-06-05T14:20:12.271Z,22.20
2018-06-05T14:25:09.988Z,22.80
2018-06-05T14:27:40.464Z,22.30
2018-06-05T14:30:09.208Z,22.50
2018-06-05T14:32:39.014Z,22.50
2018-06-05T14:35:11.845Z,22.10
2018-06-05T14:37:40.588Z,21.80
2018-06-05T14:40:12.485Z,22.00
2018-06-05T14:42:41.759Z,21.80
2018-06-05T14:45:11.105Z,21.80
2018-06-05T14:47:40.946Z,21.80
2018-06-05T14:50:09.653Z,22.30
2018-06-05T14:52:39.184Z,22.50
2018-06-05T14:55:08.547Z,22.70
2018-06-05T14:57:37.104Z,22.20
2018-06-05T15:00:06.616Z,21.60
2018-06-05T15:02:35.244Z,21.60
2018-06-05T15:05:04.596Z,22.00
2018-06-05T15:07:33.345Z,22.10
2018-06-05T15:10:02.106Z,21.60
2018-06-05T15:12:30.648Z,21.20
2018-06-05T15:14:59.430Z,21.40
2018-06-05T15:17:29.610Z,21.80
2018-06-05T15:19:58.240Z,21.60
2018-06-05T15:22:26.932Z,21.70
2018-06-05T15:24:55.536Z,21.30
2018-06-05T15:27:24.255Z,21.70
2018-06-05T15:29:53.011Z,21.80
2018-06-05T15:32:21.563Z,21.60
2018-06-05T15:34:50.222Z,21.50
2018-06-05T15:37:18.705Z,21.70
2018-06-05T15:39:47.210Z,21.70
2018-06-05T15:42:15.806Z,21.20
2018-06-05T15:44:44.423Z,20.90
2018-06-05T15:47:13.147Z,20.80
2018-06-05T15:49:45.437Z,20.90
2018-06-05T15:52:14.454Z,21.10
2018-06-05T15:54:43.080Z,21.30
2018-06-05T15:57:11.511Z,21.40
2018-06-05T15:59:40.143Z,21.80
2018-06-05T16:02:08.701Z,21.90
2018-06-05T16:04:37.469Z,21.90
2018-06-05T16:07:06.204Z,21.40
2018-06-05T16:09:34.831Z,21.70
2018-06-05T16:12:03.843Z,21.50
2018-06-05T16:14:32.500Z,21.60
2018-06-05T16:17:01.092Z,21.70
2018-06-05T16:19:29.784Z,21.60
2018-06-05T16:21:58.692Z,21.30
2018-06-05T16:24:28.429Z,21.20
2018-06-05T16:26:57.131Z,21.00
2018-06-05T16:29:25.667Z,20.80
2018-06-05T16:31:54.117Z,20.90
2018-06-05T16:34:22.723Z,21.20
2018-06-05T16:36:51.222Z,21.20
2018-06-05T16:39:20.088Z,21.30
2018-06-05T16:41:48.779Z,21.50
2018-06-05T16:44:17.544Z,21.30
2018-06-05T16:46:46.062Z,21.10
2018-06-05T16:49:15.142Z,21.10
2018-06-05T16:51:43.771Z,21.10
2018-06-05T16:54:12.544Z,21.10
2018-06-05T16:56:41.114Z,21.10
2018-06-05T16:59:09.649Z,21.20
2018-06-05T17:01:38.167Z,21.00
2018-06-05T17:04:06.661Z,20.90
2018-06-05T17:06:35.139Z,20.80
2018-06-05T17:09:04.078Z,20.90
2018-06-05T17:11:32.573Z,20.70
2018-06-05T17:16:29.520Z,21.10
2018-06-05T17:18:57.984Z,21.00
2018-06-05T17:21:26.419Z,21.00
2018-06-05T17:23:54.890Z,20.90
2018-06-05T17:26:23.356Z,20.80
2018-06-05T17:31:21.610Z,20.90
2018-06-05T17:33:50.551Z,21.10
2018-06-05T17:36:19.779Z,21.30
2018-06-05T17:38:48.573Z,21.40
2018-06-05T17:41:17.168Z,21.10
2018-06-05T17:43:45.960Z,20.90
2018-06-05T17:46:14.676Z,20.80
2018-06-05T17:48:44.393Z,20.60
2018-06-05T17:51:13.056Z,20.60
2018-06-05T17:53:41.885Z,20.40
2018-06-05T17:56:10.558Z,20.30
2018-06-05T17:58:39.516Z,20.30
2018-06-05T18:01:08.291Z,20.20
2018-06-05T18:03:37.555Z,20.10
2018-06-05T18:06:06.425Z,20.10
2018-06-05T18:08:35.288Z,20.10
2018-06-05T18:11:04.143Z,20.10
2018-06-05T18:13:33.348Z,20.00
2018-06-05T18:16:02.250Z,20.00
2018-06-05T18:18:31.129Z,20.00
2018-06-05T18:21:00.494Z,20.00
2018-06-05T18:23:30.036Z,19.90
2018-06-05T18:25:59.459Z,19.90
2018-06-05T18:28:28.329Z,19.90
2018-06-05T18:33:25.636Z,19.70
2018-06-05T18:35:54.826Z,19.70
2018-06-05T18:38:23.782Z,19.70
2018-06-05T18:40:52.973Z,19.60
2018-06-05T18:43:21.571Z,19.60
2018-06-05T18:45:50.179Z,19.50
2018-06-05T18:48:18.831Z,19.50
2018-06-05T18:50:47.313Z,19.50
2018-06-05T18:53:16.148Z,19.40
2018-06-05T18:55:44.610Z,19.30
2018-06-05T18:58:13.229Z,19.10
2018-06-05T19:00:42.070Z,19.10
2018-06-05T19:03:10.700Z,19.00
2018-06-05T19:05:39.120Z,18.80
2018-06-05T19:08:08.354Z,18.70
2018-06-05T19:10:37.231Z,18.60
2018-06-05T19:13:06.996Z,18.50
2018-06-05T19:15:35.688Z,18.30
2018-06-05T19:18:04.228Z,18.20
2018-06-05T19:20:33.615Z,18.10
2018-06-05T19:23:02.058Z,18.10
2018-06-05T19:25:31.152Z,18.00
2018-06-05T19:27:59.868Z,17.90
2018-06-05T19:30:28.559Z,17.80
2018-06-05T19:35:25.636Z,17.70
2018-06-05T19:37:54.491Z,17.60
2018-06-05T19:40:24.213Z,17.60
2018-06-05T19:42:52.699Z,17.50
2018-06-05T19:45:21.203Z,17.40
2018-06-05T19:47:50.165Z,17.30
2018-06-05T19:50:18.682Z,17.20
2018-06-05T19:52:47.804Z,17.20
2018-06-05T19:55:16.222Z,17.10
2018-06-05T19:57:44.708Z,17.00
2018-06-05T20:00:13.172Z,17.00
2018-06-05T20:02:41.800Z,16.90
2018-06-05T20:05:10.455Z,16.80
2018-06-05T20:07:38.997Z,16.80
2018-06-05T20:10:07.903Z,16.70
2018-06-05T20:12:36.704Z,16.70
2018-06-05T20:15:05.457Z,16.70
2018-06-05T20:17:34.880Z,16.60
2018-06-05T20:20:03.645Z,16.50
2018-06-05T20:22:32.691Z,16.50
2018-06-05T20:25:01.420Z,16.50
2018-06-05T20:27:32.805Z,16.40
2018-06-05T20:30:02.322Z,16.40
2018-06-05T20:32:30.917Z,16.30
2018-06-05T20:35:01.594Z,16.30
2018-06-05T20:37:30.241Z,16.30
2018-06-05T20:39:59.147Z,16.20
2018-06-05T20:42:27.937Z,16.10
2018-06-05T20:44:56.460Z,16.10
2018-06-05T20:49:53.434Z,16.00
2018-06-05T20:52:22.047Z,15.90
2018-06-05T20:54:50.652Z,15.90
2018-06-05T20:57:20.589Z,15.80
2018-06-05T20:59:49.516Z,15.80
2018-06-05T21:02:18.353Z,15.70
2018-06-05T21:04:47.947Z,15.80
2018-06-05T21:07:17.487Z,15.70
2018-06-05T21:09:46.098Z,15.60
2018-06-05T21:12:14.651Z,15.50
2018-06-05T21:14:43.965Z,15.40
2018-06-05T21:17:12.918Z,15.30
2018-06-05T21:19:44.000Z,15.20
2018-06-05T21:22:13.997Z,15.10
2018-06-05T21:24:44.088Z,15.00
2018-06-05T21:27:12.617Z,14.90
2018-06-05T21:29:41.110Z,14.80
2018-06-05T21:32:11.825Z,14.70
2018-06-05T21:34:40.484Z,14.70
2018-06-05T21:37:09.175Z,14.60
2018-06-05T21:39:37.854Z,14.60
2018-06-05T21:42:06.482Z,14.60
2018-06-05T21:44:34.949Z,14.50
2018-06-05T21:47:03.636Z,14.50
2018-06-05T21:49:32.590Z,14.40
2018-06-05T21:52:01.556Z,14.40
2018-06-05T21:54:30.950Z,14.30
2018-06-05T21:57:00.256Z,14.20
2018-06-05T21:59:32.097Z,14.10
2018-06-05T22:02:00.557Z,14.10
2018-06-05T22:04:31.255Z,14.00
2018-06-05T22:06:59.856Z,14.00
2018-06-05T22:09:29.373Z,13.90
2018-06-05T22:12:00.323Z,13.90
2018-06-05T22:14:29.314Z,13.80
2018-06-05T22:16:59.482Z,13.80
2018-06-05T22:19:27.926Z,13.70
2018-06-05T22:21:56.392Z,13.70
2018-06-05T22:24:24.852Z,13.70
2018-06-05T22:26:54.532Z,13.60
2018-06-05T22:29:23.273Z,13.70
2018-06-05T22:31:52.118Z,13.70
2018-06-05T22:34:20.552Z,13.70
2018-06-05T22:36:49.185Z,13.80
2018-06-05T22:39:18.150Z,13.80
2018-06-05T22:41:46.630Z,13.80
2018-06-05T22:44:15.554Z,13.70
2018-06-05T22:46:44.180Z,13.60
2018-06-05T22:49:12.774Z,13.60
2018-06-05T22:51:41.397Z,13.50
2018-06-05T22:54:10.101Z,13.50
2018-06-05T22:56:38.976Z,13.50
2018-06-05T22:59:07.452Z,13.50
2018-06-05T23:01:36.052Z,13.40
2018-06-05T23:04:04.799Z,13.40
2018-06-05T23:06:33.258Z,13.30
2018-06-05T23:09:01.999Z,13.30
2018-06-05T23:11:30.456Z,13.30
2018-06-05T23:13:59.036Z,13.30
2018-06-05T23:16:27.682Z,13.30
2018-06-05T23:18:56.360Z,13.30
2018-06-05T23:21:25.006Z,13.30
2018-06-05T23:23:53.800Z,13.20
2018-06-05T23:26:22.396Z,13.20
2018-06-05T23:28:50.986Z,13.20
2018-06-05T23:31:19.492Z,13.10
2018-06-05T23:36:16.289Z,13.00
2018-06-05T23:38:44.764Z,13.00
2018-06-05T23:41:13.321Z,13.00
2018-06-05T23:43:41.954Z,13.00
2018-06-05T23:46:10.581Z,12.90
2018-06-05T23:48:39.036Z,13.00
2018-06-05T23:51:07.444Z,12.90
2018-06-05T23:53:35.855Z,12.90
2018-06-05T23:56:04.313Z,12.80
2018-06-05T23:58:32.927Z,12.80
